Pola de Lena, Spain
Current Conditions -  °F | °C
As of 10:00 PM on Tuesday 27 Jan 2015 (Local Time) from LEAS Reporting Station
Broken Clouds Broken Clouds  
Wind Chill: 45°   Ceiling: 4000
Heat Index: 48°   Visibility: 6mi
Dew Point: 46°   Wind: 8mph
Humidity: 93%   Direction: 280°W
Pressure: 30.48"   Gusts: NA
Location:  43.16°N, 5.83°W
Report Text: LEAS 272100Z 28007KT 9999 FEW020 BKN040 09/08 Q1032 NOSIG
Loading
Personal Weather Stations






























Interactive Weather Map New forecast layout! Learn more

10-Day Weather Forecast

Advertisements
Track Severe Weather on mobile